sensor_id;sensor_type;location;lat;lon;timestamp;temperature;humidity
10453;DHT22;5274;51.992;8.518;2023-01-05T00:00:25;9.30;1.00
10453;DHT22;5274;51.992;8.518;2023-01-05T00:02:51;9.40;99.90
10453;DHT22;5274;51.992;8.518;2023-01-05T00:05:16;9.40;99.90
10453;DHT22;5274;51.992;8.518;2023-01-05T00:07:42;9.50;99.90
10453;DHT22;5274;51.992;8.518;2023-01-05T00:10:07;9.40;99.90
10453;DHT22;5274;51.992;8.518;2023-01-05T00:12:53;9.50;48.80
10453;DHT22;5274;51.992;8.518;2023-01-05T00:15:37;9.50;99.90
10453;DHT22;5274;51.992;8.518;2023-01-05T00:18:41;9.50;98.00
10453;DHT22;5274;51.992;8.518;2023-01-05T00:21:25;9.50;48.20
10453;DHT22;5274;51.992;8.518;2023-01-05T00:24:09;9.50;92.30
10453;DHT22;5274;51.992;8.518;2023-01-05T00:26:34;9.50;1.00
10453;DHT22;5274;51.992;8.518;2023-01-05T00:29:00;9.50;20.70
10453;DHT22;5274;51.992;8.518;2023-01-05T00:31:25;9.30;99.90
10453;DHT22;5274;51.992;8.518;2023-01-05T00:33:51;9.00;1.00
10453;DHT22;5274;51.992;8.518;2023-01-05T00:36:16;8.90;1.00
10453;DHT22;5274;51.992;8.518;2023-01-05T00:38:42;8.80;1.00
10453;DHT22;5274;51.992;8.518;2023-01-05T00:41:07;8.80;1.00
10453;DHT22;5274;51.992;8.518;2023-01-05T00:43:32;8.80;1.00
10453;DHT22;5274;51.992;8.518;2023-01-05T00:45:58;8.60;1.00
10453;DHT22;5274;51.992;8.518;2023-01-05T00:48:24;8.60;1.00
10453;DHT22;5274;51.992;8.518;2023-01-05T00:50:49;8.30;1.00
10453;DHT22;5274;51.992;8.518;2023-01-05T00:53:14;8.20;1.00
10453;DHT22;5274;51.992;8.518;2023-01-05T00:55:40;8.10;1.00
10453;DHT22;5274;51.992;8.518;2023-01-05T00:58:05;8.00;1.00
10453;DHT22;5274;51.992;8.518;2023-01-05T01:00:31;8.00;1.00
10453;DHT22;5274;51.992;8.518;2023-01-05T01:02:56;7.90;1.00
10453;DHT22;5274;51.992;8.518;2023-01-05T01:05:22;8.00;1.00
10453;DHT22;5274;51.992;8.518;2023-01-05T01:07:47;7.90;1.00
10453;DHT22;5274;51.992;8.518;2023-01-05T01:10:14;8.00;1.00
10453;DHT22;5274;51.992;8.518;2023-01-05T01:12:39;8.00;1.00
10453;DHT22;5274;51.992;8.518;2023-01-05T01:15:06;8.00;1.00
10453;DHT22;5274;51.992;8.518;2023-01-05T01:17:32;8.00;1.00
10453;DHT22;5274;51.992;8.518;2023-01-05T01:19:58;8.10;1.00
10453;DHT22;5274;51.992;8.518;2023-01-05T01:22:24;8.10;1.00
10453;DHT22;5274;51.992;8.518;2023-01-05T01:24:51;8.10;1.00
10453;DHT22;5274;51.992;8.518;2023-01-05T01:27:16;8.10;1.00
10453;DHT22;5274;51.992;8.518;2023-01-05T01:29:42;8.10;1.00
10453;DHT22;5274;51.992;8.518;2023-01-05T01:32:07;8.20;1.00
10453;DHT22;5274;51.992;8.518;2023-01-05T01:34:33;8.10;1.00
10453;DHT22;5274;51.992;8.518;2023-01-05T01:36:58;8.20;1.00
10453;DHT22;5274;51.992;8.518;2023-01-05T01:39:24;8.20;1.00
10453;DHT22;5274;51.992;8.518;2023-01-05T01:41:50;8.20;1.00
10453;DHT22;5274;51.992;8.518;2023-01-05T01:47:39;8.30;1.00
10453;DHT22;5274;51.992;8.518;2023-01-05T01:50:22;8.30;1.00
10453;DHT22;5274;51.992;8.518;2023-01-05T01:52:55;8.30;1.00
10453;DHT22;5274;51.992;8.518;2023-01-05T01:55:22;8.30;1.00
10453;DHT22;5274;51.992;8.518;2023-01-05T01:57:49;8.30;1.00
10453;DHT22;5274;51.992;8.518;2023-01-05T02:00:15;8.30;1.00
10453;DHT22;5274;51.992;8.518;2023-01-05T02:02:41;8.30;1.00
10453;DHT22;5274;51.992;8.518;2023-01-05T02:05:09;8.30;1.00
10453;DHT22;5274;51.992;8.518;2023-01-05T02:07:41;8.30;1.00
10453;DHT22;5274;51.992;8.518;2023-01-05T02:10:07;8.40;1.00
10453;DHT22;5274;51.992;8.518;2023-01-05T02:23:38;8.40;1.00
10453;DHT22;5274;51.992;8.518;2023-01-05T02:26:39;8.40;1.00
10453;DHT22;5274;51.992;8.518;2023-01-05T02:29:32;8.40;1.00
10453;DHT22;5274;51.992;8.518;2023-01-05T02:32:26;8.40;1.00
10453;DHT22;5274;51.992;8.518;2023-01-05T02:38:12;8.40;1.00
10453;DHT22;5274;51.992;8.518;2023-01-05T02:40:43;8.40;1.00
10453;DHT22;5274;51.992;8.518;2023-01-05T02:43:12;8.40;1.00
10453;DHT22;5274;51.992;8.518;2023-01-05T02:45:38;8.40;1.00
10453;DHT22;5274;51.992;8.518;2023-01-05T02:48:03;8.40;1.00
10453;DHT22;5274;51.992;8.518;2023-01-05T02:50:55;8.40;1.00
10453;DHT22;5274;51.992;8.518;2023-01-05T02:53:27;8.40;1.00
10453;DHT22;5274;51.992;8.518;2023-01-05T02:55:56;8.40;1.00
10453;DHT22;5274;51.992;8.518;2023-01-05T02:58:26;8.30;1.00
10453;DHT22;5274;51.992;8.518;2023-01-05T03:00:59;8.40;1.00
10453;DHT22;5274;51.992;8.518;2023-01-05T03:03:42;8.40;1.00
10453;DHT22;5274;51.992;8.518;2023-01-05T03:06:14;8.30;1.00
10453;DHT22;5274;51.992;8.518;2023-01-05T03:08:48;8.40;1.00
10453;DHT22;5274;51.992;8.518;2023-01-05T03:11:14;8.40;1.00
10453;DHT22;5274;51.992;8.518;2023-01-05T03:14:09;8.30;1.00
10453;DHT22;5274;51.992;8.518;2023-01-05T03:16:37;8.30;1.00
10453;DHT22;5274;51.992;8.518;2023-01-05T03:19:08;8.40;1.00
10453;DHT22;5274;51.992;8.518;2023-01-05T03:21:54;8.30;1.00
10453;DHT22;5274;51.992;8.518;2023-01-05T03:24:39;8.30;1.00
10453;DHT22;5274;51.992;8.518;2023-01-05T03:27:24;8.30;1.00
10453;DHT22;5274;51.992;8.518;2023-01-05T03:30:10;8.30;1.00
10453;DHT22;5274;51.992;8.518;2023-01-05T03:33:01;8.30;1.00
10453;DHT22;5274;51.992;8.518;2023-01-05T03:35:46;8.40;1.00
10453;DHT22;5274;51.992;8.518;2023-01-05T03:40:43;8.40;1.00
10453;DHT22;5274;51.992;8.518;2023-01-05T03:43:09;8.40;1.00
10453;DHT22;5274;51.992;8.518;2023-01-05T03:45:39;8.40;1.00
10453;DHT22;5274;51.992;8.518;2023-01-05T03:48:05;8.40;1.00
10453;DHT22;5274;51.992;8.518;2023-01-05T03:50:33;8.40;1.00
10453;DHT22;5274;51.992;8.518;2023-01-05T03:52:58;8.40;1.00
10453;DHT22;5274;51.992;8.518;2023-01-05T03:55:24;8.40;1.00
10453;DHT22;5274;51.992;8.518;2023-01-05T03:57:49;8.40;1.00
10453;DHT22;5274;51.992;8.518;2023-01-05T04:00:15;8.40;1.00
10453;DHT22;5274;51.992;8.518;2023-01-05T04:02:41;8.40;1.00
10453;DHT22;5274;51.992;8.518;2023-01-05T04:05:06;8.40;1.00
10453;DHT22;5274;51.992;8.518;2023-01-05T04:07:32;8.40;1.00
10453;DHT22;5274;51.992;8.518;2023-01-05T04:09:57;8.40;1.00
10453;DHT22;5274;51.992;8.518;2023-01-05T04:12:23;8.50;1.00
10453;DHT22;5274;51.992;8.518;2023-01-05T04:14:49;8.40;1.00
10453;DHT22;5274;51.992;8.518;2023-01-05T04:17:14;8.50;99.90
10453;DHT22;5274;51.992;8.518;2023-01-05T04:19:39;8.50;1.00
10453;DHT22;5274;51.992;8.518;2023-01-05T04:22:05;8.40;1.00
10453;DHT22;5274;51.992;8.518;2023-01-05T04:24:30;8.50;1.00
10453;DHT22;5274;51.992;8.518;2023-01-05T04:26:56;8.40;1.00
10453;DHT22;5274;51.992;8.518;2023-01-05T04:29:21;8.40;1.00
10453;DHT22;5274;51.992;8.518;2023-01-05T04:31:47;8.40;1.00
10453;DHT22;5274;51.992;8.518;2023-01-05T04:34:12;8.40;1.00
10453;DHT22;5274;51.992;8.518;2023-01-05T04:36:38;8.40;1.00
10453;DHT22;5274;51.992;8.518;2023-01-05T04:39:03;8.50;1.00
10453;DHT22;5274;51.992;8.518;2023-01-05T04:41:29;8.40;1.00
10453;DHT22;5274;51.992;8.518;2023-01-05T04:43:54;8.50;1.00
10453;DHT22;5274;51.992;8.518;2023-01-05T04:46:20;8.50;1.00
10453;DHT22;5274;51.992;8.518;2023-01-05T04:48:45;8.50;99.90
10453;DHT22;5274;51.992;8.518;2023-01-05T04:51:11;8.50;99.90
10453;DHT22;5274;51.992;8.518;2023-01-05T04:53:36;8.50;99.90
10453;DHT22;5274;51.992;8.518;2023-01-05T04:56:02;8.50;99.90
10453;DHT22;5274;51.992;8.518;2023-01-05T04:58:27;8.60;99.90
10453;DHT22;5274;51.992;8.518;2023-01-05T05:00:53;8.60;99.90
10453;DHT22;5274;51.992;8.518;2023-01-05T05:03:18;8.60;99.90
10453;DHT22;5274;51.992;8.518;2023-01-05T05:05:44;8.60;99.90
10453;DHT22;5274;51.992;8.518;2023-01-05T05:08:09;8.60;99.90
10453;DHT22;5274;51.992;8.518;2023-01-05T05:10:35;8.60;99.90
10453;DHT22;5274;51.992;8.518;2023-01-05T05:13:00;8.60;99.90
10453;DHT22;5274;51.992;8.518;2023-01-05T05:15:26;8.50;99.90
10453;DHT22;5274;51.992;8.518;2023-01-05T05:17:51;8.60;99.90
10453;DHT22;5274;51.992;8.518;2023-01-05T05:20:17;8.60;99.90
10453;DHT22;5274;51.992;8.518;2023-01-05T05:22:42;8.60;99.90
10453;DHT22;5274;51.992;8.518;2023-01-05T05:25:08;8.60;99.90
10453;DHT22;5274;51.992;8.518;2023-01-05T05:27:33;8.60;99.90
10453;DHT22;5274;51.992;8.518;2023-01-05T05:29:59;8.60;99.90
10453;DHT22;5274;51.992;8.518;2023-01-05T05:32:24;8.60;99.90
10453;DHT22;5274;51.992;8.518;2023-01-05T05:34:50;8.60;99.90
10453;DHT22;5274;51.992;8.518;2023-01-05T05:37:15;8.60;99.90
10453;DHT22;5274;51.992;8.518;2023-01-05T05:39:41;8.60;99.90
10453;DHT22;5274;51.992;8.518;2023-01-05T05:42:06;8.60;99.90
10453;DHT22;5274;51.992;8.518;2023-01-05T05:44:32;8.60;99.90
10453;DHT22;5274;51.992;8.518;2023-01-05T05:46:57;8.60;99.90
10453;DHT22;5274;51.992;8.518;2023-01-05T05:49:23;8.60;99.90
10453;DHT22;5274;51.992;8.518;2023-01-05T05:51:48;8.60;99.90
10453;DHT22;5274;51.992;8.518;2023-01-05T05:54:14;8.60;99.90
10453;DHT22;5274;51.992;8.518;2023-01-05T05:56:39;8.70;99.90
10453;DHT22;5274;51.992;8.518;2023-01-05T05:59:05;8.60;99.90
10453;DHT22;5274;51.992;8.518;2023-01-05T06:01:30;8.70;99.90
10453;DHT22;5274;51.992;8.518;2023-01-05T06:03:56;8.60;99.90
10453;DHT22;5274;51.992;8.518;2023-01-05T06:06:21;8.60;99.90
10453;DHT22;5274;51.992;8.518;2023-01-05T06:08:47;8.60;99.90
10453;DHT22;5274;51.992;8.518;2023-01-05T06:11:12;8.60;99.90
10453;DHT22;5274;51.992;8.518;2023-01-05T06:13:38;8.60;99.90
10453;DHT22;5274;51.992;8.518;2023-01-05T06:16:04;8.60;99.90
10453;DHT22;5274;51.992;8.518;2023-01-05T06:18:29;8.60;99.90
10453;DHT22;5274;51.992;8.518;2023-01-05T06:20:55;8.60;1.00
10453;DHT22;5274;51.992;8.518;2023-01-05T06:23:20;8.60;1.00
10453;DHT22;5274;51.992;8.518;2023-01-05T06:25:46;8.50;1.00
10453;DHT22;5274;51.992;8.518;2023-01-05T06:28:11;8.50;1.00
10453;DHT22;5274;51.992;8.518;2023-01-05T06:30:37;8.50;1.00
10453;DHT22;5274;51.992;8.518;2023-01-05T06:33:02;8.50;1.00
10453;DHT22;5274;51.992;8.518;2023-01-05T06:35:28;8.40;1.00
10453;DHT22;5274;51.992;8.518;2023-01-05T06:37:53;7.80;1.00
10453;DHT22;5274;51.992;8.518;2023-01-05T06:40:19;8.40;1.00
10453;DHT22;5274;51.992;8.518;2023-01-05T06:42:45;8.40;1.00
10453;DHT22;5274;51.992;8.518;2023-01-05T06:45:14;8.40;1.00
10453;DHT22;5274;51.992;8.518;2023-01-05T06:47:42;8.40;1.00
10453;DHT22;5274;51.992;8.518;2023-01-05T06:50:08;8.40;1.00
10453;DHT22;5274;51.992;8.518;2023-01-05T06:52:33;8.40;1.00
10453;DHT22;5274;51.992;8.518;2023-01-05T06:55:02;8.50;1.00
10453;DHT22;5274;51.992;8.518;2023-01-05T06:57:28;8.40;1.00
10453;DHT22;5274;51.992;8.518;2023-01-05T06:59:54;8.40;1.00
10453;DHT22;5274;51.992;8.518;2023-01-05T07:02:19;8.40;1.00
10453;DHT22;5274;51.992;8.518;2023-01-05T07:04:45;8.40;1.00
10453;DHT22;5274;51.992;8.518;2023-01-05T07:07:16;8.50;1.00
10453;DHT22;5274;51.992;8.518;2023-01-05T07:09:41;8.50;1.00
10453;DHT22;5274;51.992;8.518;2023-01-05T07:12:09;8.50;1.00
10453;DHT22;5274;51.992;8.518;2023-01-05T07:14:34;8.50;1.00
10453;DHT22;5274;51.992;8.518;2023-01-05T07:17:00;8.50;1.00
10453;DHT22;5274;51.992;8.518;2023-01-05T07:19:25;8.50;1.00
10453;DHT22;5274;51.992;8.518;2023-01-05T07:21:51;8.50;1.00
10453;DHT22;5274;51.992;8.518;2023-01-05T07:24:16;8.50;1.00
10453;DHT22;5274;51.992;8.518;2023-01-05T07:26:42;8.50;1.00
10453;DHT22;5274;51.992;8.518;2023-01-05T07:29:07;8.40;1.00
10453;DHT22;5274;51.992;8.518;2023-01-05T07:31:33;8.40;1.00
10453;DHT22;5274;51.992;8.518;2023-01-05T07:33:58;8.40;1.00
10453;DHT22;5274;51.992;8.518;2023-01-05T07:36:24;8.40;1.00
10453;DHT22;5274;51.992;8.518;2023-01-05T07:38:51;8.40;1.00
10453;DHT22;5274;51.992;8.518;2023-01-05T07:41:16;8.40;1.00
10453;DHT22;5274;51.992;8.518;2023-01-05T07:43:42;8.40;1.00
10453;DHT22;5274;51.992;8.518;2023-01-05T07:46:08;8.40;1.00
10453;DHT22;5274;51.992;8.518;2023-01-05T07:48:33;8.40;1.00
10453;DHT22;5274;51.992;8.518;2023-01-05T07:51:03;8.40;1.00
10453;DHT22;5274;51.992;8.518;2023-01-05T07:53:30;8.40;1.00
10453;DHT22;5274;51.992;8.518;2023-01-05T07:55:57;8.40;1.00
10453;DHT22;5274;51.992;8.518;2023-01-05T07:58:23;8.40;1.00
10453;DHT22;5274;51.992;8.518;2023-01-05T08:00:49;8.40;1.00
10453;DHT22;5274;51.992;8.518;2023-01-05T08:03:15;8.40;1.00
10453;DHT22;5274;51.992;8.518;2023-01-05T08:05:40;8.40;1.00
10453;DHT22;5274;51.992;8.518;2023-01-05T08:08:05;8.40;1.00
10453;DHT22;5274;51.992;8.518;2023-01-05T08:10:31;8.40;1.00
10453;DHT22;5274;51.992;8.518;2023-01-05T08:13:01;8.40;1.00
10453;DHT22;5274;51.992;8.518;2023-01-05T08:15:46;8.40;1.00
10453;DHT22;5274;51.992;8.518;2023-01-05T08:18:11;8.40;1.00
10453;DHT22;5274;51.992;8.518;2023-01-05T08:20:37;8.40;1.00
10453;DHT22;5274;51.992;8.518;2023-01-05T08:23:02;8.50;1.00
10453;DHT22;5274;51.992;8.518;2023-01-05T08:25:28;8.50;1.00
10453;DHT22;5274;51.992;8.518;2023-01-05T08:27:53;8.40;1.00
10453;DHT22;5274;51.992;8.518;2023-01-05T08:30:19;8.50;1.00
10453;DHT22;5274;51.992;8.518;2023-01-05T08:32:45;8.50;1.00
10453;DHT22;5274;51.992;8.518;2023-01-05T08:35:10;8.50;1.00
10453;DHT22;5274;51.992;8.518;2023-01-05T08:37:36;8.50;1.00
10453;DHT22;5274;51.992;8.518;2023-01-05T08:40:02;8.50;1.00
10453;DHT22;5274;51.992;8.518;2023-01-05T08:42:27;8.60;1.00
10453;DHT22;5274;51.992;8.518;2023-01-05T08:44:53;8.50;1.00
10453;DHT22;5274;51.992;8.518;2023-01-05T08:47:18;8.60;1.00
10453;DHT22;5274;51.992;8.518;2023-01-05T08:49:44;8.50;1.00
10453;DHT22;5274;51.992;8.518;2023-01-05T08:52:09;8.50;1.00
10453;DHT22;5274;51.992;8.518;2023-01-05T08:54:35;8.60;1.00
10453;DHT22;5274;51.992;8.518;2023-01-05T08:57:00;8.60;1.00
10453;DHT22;5274;51.992;8.518;2023-01-05T08:59:26;8.60;1.00
10453;DHT22;5274;51.992;8.518;2023-01-05T09:01:51;8.60;1.00
10453;DHT22;5274;51.992;8.518;2023-01-05T09:04:17;8.60;1.00
10453;DHT22;5274;51.992;8.518;2023-01-05T09:06:43;8.60;1.00
10453;DHT22;5274;51.992;8.518;2023-01-05T09:09:08;8.70;1.00
10453;DHT22;5274;51.992;8.518;2023-01-05T09:11:34;8.70;1.00
10453;DHT22;5274;51.992;8.518;2023-01-05T09:14:00;8.70;1.00
10453;DHT22;5274;51.992;8.518;2023-01-05T09:16:31;8.70;1.00
10453;DHT22;5274;51.992;8.518;2023-01-05T09:18:58;8.70;1.00
10453;DHT22;5274;51.992;8.518;2023-01-05T09:21:24;8.70;1.00
10453;DHT22;5274;51.992;8.518;2023-01-05T09:23:49;8.70;1.00
10453;DHT22;5274;51.992;8.518;2023-01-05T09:26:16;8.70;1.00
10453;DHT22;5274;51.992;8.518;2023-01-05T09:28:42;8.70;1.00
10453;DHT22;5274;51.992;8.518;2023-01-05T09:31:10;8.80;1.00
10453;DHT22;5274;51.992;8.518;2023-01-05T09:33:37;8.80;1.00
10453;DHT22;5274;51.992;8.518;2023-01-05T09:36:03;8.80;1.00
10453;DHT22;5274;51.992;8.518;2023-01-05T09:38:29;8.80;1.00
10453;DHT22;5274;51.992;8.518;2023-01-05T09:40:57;8.80;99.90
10453;DHT22;5274;51.992;8.518;2023-01-05T09:43:31;8.80;1.00
10453;DHT22;5274;51.992;8.518;2023-01-05T09:45:58;8.80;1.00
10453;DHT22;5274;51.992;8.518;2023-01-05T09:48:25;8.80;1.00
10453;DHT22;5274;51.992;8.518;2023-01-05T09:50:51;8.80;1.00
10453;DHT22;5274;51.992;8.518;2023-01-05T09:53:25;8.80;1.00
10453;DHT22;5274;51.992;8.518;2023-01-05T09:55:52;8.80;1.00
10453;DHT22;5274;51.992;8.518;2023-01-05T09:58:21;8.80;1.00
10453;DHT22;5274;51.992;8.518;2023-01-05T10:01:08;8.80;1.00
10453;DHT22;5274;51.992;8.518;2023-01-05T10:03:38;8.70;1.00
10453;DHT22;5274;51.992;8.518;2023-01-05T10:06:08;8.80;1.00
10453;DHT22;5274;51.992;8.518;2023-01-05T10:08:43;8.80;1.00
10453;DHT22;5274;51.992;8.518;2023-01-05T10:11:21;8.70;1.00
10453;DHT22;5274;51.992;8.518;2023-01-05T10:14:28;8.80;1.00
10453;DHT22;5274;51.992;8.518;2023-01-05T10:16:55;8.70;1.00
10453;DHT22;5274;51.992;8.518;2023-01-05T10:19:20;8.70;1.00
10453;DHT22;5274;51.992;8.518;2023-01-05T10:22:06;8.70;1.00
10453;DHT22;5274;51.992;8.518;2023-01-05T10:25:17;8.70;1.00
10453;DHT22;5274;51.992;8.518;2023-01-05T10:30:56;8.80;1.00
10453;DHT22;5274;51.992;8.518;2023-01-05T10:33:48;8.80;1.00
10453;DHT22;5274;51.992;8.518;2023-01-05T10:42:16;8.80;1.00
10453;DHT22;5274;51.992;8.518;2023-01-05T10:44:55;8.80;1.00
10453;DHT22;5274;51.992;8.518;2023-01-05T10:47:23;8.80;1.00
10453;DHT22;5274;51.992;8.518;2023-01-05T10:49:50;8.80;1.00
10453;DHT22;5274;51.992;8.518;2023-01-05T10:52:18;8.70;1.00
10453;DHT22;5274;51.992;8.518;2023-01-05T10:54:47;8.80;1.00
10453;DHT22;5274;51.992;8.518;2023-01-05T10:57:29;8.70;1.00
10453;DHT22;5274;51.992;8.518;2023-01-05T11:00:08;8.70;1.00
10453;DHT22;5274;51.992;8.518;2023-01-05T11:02:37;8.70;1.00
10453;DHT22;5274;51.992;8.518;2023-01-05T11:05:27;8.70;1.00
10453;DHT22;5274;51.992;8.518;2023-01-05T11:07:57;8.70;1.00
10453;DHT22;5274;51.992;8.518;2023-01-05T11:10:27;8.70;1.00
10453;DHT22;5274;51.992;8.518;2023-01-05T11:13:03;8.70;1.00
10453;DHT22;5274;51.992;8.518;2023-01-05T11:15:38;8.80;1.00
10453;DHT22;5274;51.992;8.518;2023-01-05T11:18:06;8.80;1.00
10453;DHT22;5274;51.992;8.518;2023-01-05T11:20:31;8.80;1.00
10453;DHT22;5274;51.992;8.518;2023-01-05T11:22:57;8.80;1.00
10453;DHT22;5274;51.992;8.518;2023-01-05T11:25:24;8.90;1.00
10453;DHT22;5274;51.992;8.518;2023-01-05T11:28:12;8.90;1.00
10453;DHT22;5274;51.992;8.518;2023-01-05T11:30:56;8.90;1.00
10453;DHT22;5274;51.992;8.518;2023-01-05T11:33:25;8.90;1.00
10453;DHT22;5274;51.992;8.518;2023-01-05T11:35:52;9.00;1.00
10453;DHT22;5274;51.992;8.518;2023-01-05T11:38:28;8.90;1.00
10453;DHT22;5274;51.992;8.518;2023-01-05T11:40:56;8.90;1.00
10453;DHT22;5274;51.992;8.518;2023-01-05T11:43:25;8.90;1.00
10453;DHT22;5274;51.992;8.518;2023-01-05T11:45:58;8.90;1.00
10453;DHT22;5274;51.992;8.518;2023-01-05T11:48:27;8.90;1.00
10453;DHT22;5274;51.992;8.518;2023-01-05T11:50:55;8.90;1.00
10453;DHT22;5274;51.992;8.518;2023-01-05T11:56:17;8.90;1.00
10453;DHT22;5274;51.992;8.518;2023-01-05T11:58:46;8.90;1.00
10453;DHT22;5274;51.992;8.518;2023-01-05T12:04:17;8.90;1.00
10453;DHT22;5274;51.992;8.518;2023-01-05T12:06:57;8.80;1.00
10453;DHT22;5274;51.992;8.518;2023-01-05T12:09:38;8.70;1.00
10453;DHT22;5274;51.992;8.518;2023-01-05T12:12:38;8.80;1.00
10453;DHT22;5274;51.992;8.518;2023-01-05T12:18:18;8.90;1.00
10453;DHT22;5274;51.992;8.518;2023-01-05T12:21:00;8.90;1.00
10453;DHT22;5274;51.992;8.518;2023-01-05T12:24:27;9.00;1.00
10453;DHT22;5274;51.992;8.518;2023-01-05T12:27:15;9.00;1.00
10453;DHT22;5274;51.992;8.518;2023-01-05T12:32:52;9.00;1.00
10453;DHT22;5274;51.992;8.518;2023-01-05T12:35:38;9.10;1.00
10453;DHT22;5274;51.992;8.518;2023-01-05T12:43:50;9.00;1.00
10453;DHT22;5274;51.992;8.518;2023-01-05T12:49:11;9.00;1.00
10453;DHT22;5274;51.992;8.518;2023-01-05T12:52:04;9.00;1.00
10453;DHT22;5274;51.992;8.518;2023-01-05T12:54:48;8.90;1.00
10453;DHT22;5274;51.992;8.518;2023-01-05T12:57:32;8.90;1.00
10453;DHT22;5274;51.992;8.518;2023-01-05T13:00:04;8.90;1.00
10453;DHT22;5274;51.992;8.518;2023-01-05T13:02:35;8.90;1.00
10453;DHT22;5274;51.992;8.518;2023-01-05T13:05:03;9.00;1.00
10453;DHT22;5274;51.992;8.518;2023-01-05T13:07:41;8.90;1.00
10453;DHT22;5274;51.992;8.518;2023-01-05T13:10:27;8.90;1.00
10453;DHT22;5274;51.992;8.518;2023-01-05T13:13:01;8.90;1.00
10453;DHT22;5274;51.992;8.518;2023-01-05T13:15:34;8.80;1.00
10453;DHT22;5274;51.992;8.518;2023-01-05T13:18:02;8.90;1.00
10453;DHT22;5274;51.992;8.518;2023-01-05T13:20:40;8.80;1.00
10453;DHT22;5274;51.992;8.518;2023-01-05T13:23:18;8.80;1.00
10453;DHT22;5274;51.992;8.518;2023-01-05T13:25:51;8.90;1.00
10453;DHT22;5274;51.992;8.518;2023-01-05T13:28:22;9.00;1.00
10453;DHT22;5274;51.992;8.518;2023-01-05T13:31:14;9.00;1.00
10453;DHT22;5274;51.992;8.518;2023-01-05T13:39:20;9.00;1.00
10453;DHT22;5274;51.992;8.518;2023-01-05T13:49:41;9.10;1.00
10453;DHT22;5274;51.992;8.518;2023-01-05T13:52:45;9.10;1.00
10453;DHT22;5274;51.992;8.518;2023-01-05T13:55:17;9.10;1.00
10453;DHT22;5274;51.992;8.518;2023-01-05T13:57:43;9.10;1.00
10453;DHT22;5274;51.992;8.518;2023-01-05T14:02:55;9.00;1.00
10453;DHT22;5274;51.992;8.518;2023-01-05T14:08:05;8.90;1.00
10453;DHT22;5274;51.992;8.518;2023-01-05T14:10:32;8.90;1.00
10453;DHT22;5274;51.992;8.518;2023-01-05T14:12:58;8.80;1.00
10453;DHT22;5274;51.992;8.518;2023-01-05T14:15:37;8.80;1.00
10453;DHT22;5274;51.992;8.518;2023-01-05T14:18:08;8.80;1.00
10453;DHT22;5274;51.992;8.518;2023-01-05T14:20:37;8.70;1.00
10453;DHT22;5274;51.992;8.518;2023-01-05T14:26:03;8.70;1.00
10453;DHT22;5274;51.992;8.518;2023-01-05T14:36:46;8.70;1.00
10453;DHT22;5274;51.992;8.518;2023-01-05T14:44:40;8.70;1.00
10453;DHT22;5274;51.992;8.518;2023-01-05T14:47:08;8.60;1.00
10453;DHT22;5274;51.992;8.518;2023-01-05T14:49:41;8.60;1.00
10453;DHT22;5274;51.992;8.518;2023-01-05T14:52:17;8.60;1.00
10453;DHT22;5274;51.992;8.518;2023-01-05T14:57:34;8.60;1.00
10453;DHT22;5274;51.992;8.518;2023-01-05T15:00:10;8.60;1.00
10453;DHT22;5274;51.992;8.518;2023-01-05T15:05:19;8.60;1.00
10453;DHT22;5274;51.992;8.518;2023-01-05T15:08:15;8.60;1.00
10453;DHT22;5274;51.992;8.518;2023-01-05T15:16:05;8.50;1.00
10453;DHT22;5274;51.992;8.518;2023-01-05T15:18:55;8.60;1.00
10453;DHT22;5274;51.992;8.518;2023-01-05T15:33:03;8.50;1.00
10453;DHT22;5274;51.992;8.518;2023-01-05T15:35:42;8.50;1.00
10453;DHT22;5274;51.992;8.518;2023-01-05T15:38:28;8.50;1.00
10453;DHT22;5274;51.992;8.518;2023-01-05T15:41:03;8.50;1.00
10453;DHT22;5274;51.992;8.518;2023-01-05T15:43:31;8.50;1.00
10453;DHT22;5274;51.992;8.518;2023-01-05T15:45:58;8.50;1.00
10453;DHT22;5274;51.992;8.518;2023-01-05T15:48:27;8.50;1.00
10453;DHT22;5274;51.992;8.518;2023-01-05T15:50:56;8.50;1.00
10453;DHT22;5274;51.992;8.518;2023-01-05T15:53:27;8.50;1.00
10453;DHT22;5274;51.992;8.518;2023-01-05T15:55:54;8.40;1.00
10453;DHT22;5274;51.992;8.518;2023-01-05T15:58:20;8.40;1.00
10453;DHT22;5274;51.992;8.518;2023-01-05T16:01:04;8.40;1.00
10453;DHT22;5274;51.992;8.518;2023-01-05T16:03:35;8.30;1.00
10453;DHT22;5274;51.992;8.518;2023-01-05T16:06:05;8.30;1.00
10453;DHT22;5274;51.992;8.518;2023-01-05T16:08:35;8.30;1.00
10453;DHT22;5274;51.992;8.518;2023-01-05T16:11:06;8.40;1.00
10453;DHT22;5274;51.992;8.518;2023-01-05T16:16:10;8.40;1.00
10453;DHT22;5274;51.992;8.518;2023-01-05T16:18:40;8.30;1.00
10453;DHT22;5274;51.992;8.518;2023-01-05T16:21:22;8.30;1.00
10453;DHT22;5274;51.992;8.518;2023-01-05T16:23:53;8.40;1.00
10453;DHT22;5274;51.992;8.518;2023-01-05T16:26:20;8.30;1.00
10453;DHT22;5274;51.992;8.518;2023-01-05T16:28:45;8.40;1.00
10453;DHT22;5274;51.992;8.518;2023-01-05T16:31:28;8.30;1.00
10453;DHT22;5274;51.992;8.518;2023-01-05T16:34:19;8.30;1.00
10453;DHT22;5274;51.992;8.518;2023-01-05T16:37:22;8.30;1.00
10453;DHT22;5274;51.992;8.518;2023-01-05T16:39:48;8.30;1.00
10453;DHT22;5274;51.992;8.518;2023-01-05T16:42:20;8.30;1.00
10453;DHT22;5274;51.992;8.518;2023-01-05T16:45:25;8.30;1.00
10453;DHT22;5274;51.992;8.518;2023-01-05T16:47:51;8.30;1.00
10453;DHT22;5274;51.992;8.518;2023-01-05T16:52:56;8.30;1.00
10453;DHT22;5274;51.992;8.518;2023-01-05T16:55:31;8.20;1.00
10453;DHT22;5274;51.992;8.518;2023-01-05T16:57:58;8.20;1.00
10453;DHT22;5274;51.992;8.518;2023-01-05T17:00:33;8.20;1.00
10453;DHT22;5274;51.992;8.518;2023-01-05T17:03:26;8.20;1.00
10453;DHT22;5274;51.992;8.518;2023-01-05T17:05:53;8.10;1.00
10453;DHT22;5274;51.992;8.518;2023-01-05T17:08:21;8.10;1.00
10453;DHT22;5274;51.992;8.518;2023-01-05T17:10:47;8.10;1.00
10453;DHT22;5274;51.992;8.518;2023-01-05T17:13:19;8.00;1.00
10453;DHT22;5274;51.992;8.518;2023-01-05T17:15:48;8.00;1.00
10453;DHT22;5274;51.992;8.518;2023-01-05T17:18:18;8.00;1.00
10453;DHT22;5274;51.992;8.518;2023-01-05T17:20:46;8.00;1.00
10453;DHT22;5274;51.992;8.518;2023-01-05T17:23:24;8.00;1.00
10453;DHT22;5274;51.992;8.518;2023-01-05T17:25:53;7.90;1.00
10453;DHT22;5274;51.992;8.518;2023-01-05T17:28:20;7.80;1.00
10453;DHT22;5274;51.992;8.518;2023-01-05T17:30:49;7.80;1.00
10453;DHT22;5274;51.992;8.518;2023-01-05T17:33:15;7.70;1.00
10453;DHT22;5274;51.992;8.518;2023-01-05T17:35:40;7.70;1.00
10453;DHT22;5274;51.992;8.518;2023-01-05T17:38:06;7.70;1.00
10453;DHT22;5274;51.992;8.518;2023-01-05T17:40:31;7.70;1.00
10453;DHT22;5274;51.992;8.518;2023-01-05T17:42:57;7.70;1.00
10453;DHT22;5274;51.992;8.518;2023-01-05T17:45:24;7.80;1.00
10453;DHT22;5274;51.992;8.518;2023-01-05T17:47:53;7.80;1.00
10453;DHT22;5274;51.992;8.518;2023-01-05T17:50:25;7.80;1.00
10453;DHT22;5274;51.992;8.518;2023-01-05T17:52:59;7.80;1.00
10453;DHT22;5274;51.992;8.518;2023-01-05T17:55:26;7.80;1.00
10453;DHT22;5274;51.992;8.518;2023-01-05T17:57:52;7.80;1.00
10453;DHT22;5274;51.992;8.518;2023-01-05T18:00:20;7.80;1.00
10453;DHT22;5274;51.992;8.518;2023-01-05T18:02:47;7.90;1.00
10453;DHT22;5274;51.992;8.518;2023-01-05T18:05:13;7.80;1.00
10453;DHT22;5274;51.992;8.518;2023-01-05T18:07:39;7.80;1.00
10453;DHT22;5274;51.992;8.518;2023-01-05T18:10:07;7.80;1.00
10453;DHT22;5274;51.992;8.518;2023-01-05T18:12:33;7.80;1.00
10453;DHT22;5274;51.992;8.518;2023-01-05T18:14:59;7.80;1.00
10453;DHT22;5274;51.992;8.518;2023-01-05T18:17:25;7.80;1.00
10453;DHT22;5274;51.992;8.518;2023-01-05T18:19:50;7.80;1.00
10453;DHT22;5274;51.992;8.518;2023-01-05T18:22:16;7.80;1.00
10453;DHT22;5274;51.992;8.518;2023-01-05T18:24:42;7.80;1.00
10453;DHT22;5274;51.992;8.518;2023-01-05T18:27:08;7.80;1.00